KECS/ECS METAR and TAF weather

Enter ICAO airport designator
Station Type Date Time Source
KECS METAR 2022/06/29 00:55 UTC NOAA

KECS 290055Z AUTO 12009KT 10SM CLR 31/M01 A3007 RMK AO2


Station Type Date Time Source
KECS Decoded METAR 2022/06/29 00:55 UTC NOAA

Station name not available
Jun 28, 2022 - 08:55 PM EDT / 2022.06.29 0055 UTC
Wind: from the ESE (120 degrees) at 10 MPH (9 KT):0
Visibility: 10 mile(s):0
Sky conditions: clear
Temperature: 87 F (31 C)
Dew Point: 30 F (-1 C)
Relative Humidity: 12%
Pressure (altimeter): 30.07 in. Hg (1018 hPa)
ob: KECS 290055Z AUTO 12009KT 10SM CLR 31/M01 A3007 RMK AO2
cycle: 1

Station Type Date Time Source
KECS TAF UTC NOAA

Error!

Example: see airport list